Atqasuk, Alaska
Current Conditions -  °F | °C
As of 2:15 AM on Thursday 23 Oct 2014 (Local Time) from PAWI Reporting Station
Light Snow Light Snow  
Wind Chill: -14°   Ceiling: 1200
Heat Index: -6°   Visibility: 5mi
Dew Point: -8°   Wind: 20mph
Humidity: 86%   Direction: 60°ENE
Pressure: 30"   Gusts: NA
Location:  70.47°N, 157.4°W
Report Text: PAWI 231015Z AUTO 06017KT 5SM -SN BR BKN012 OVC048 M06/M08 A3000 RMK AO2 P0000 TSNO
Loading
Personal Weather Stations






























Interactive Weather Map
Tropical Storm Tracking
New forecast layout! Learn more

10-Day Weather Forecast

Advertisements
Track Severe Weather on mobile